sensor_id;sensor_type;location;lat;lon;timestamp;pressure;altitude;pressure_sealevel;temperature;humidity
60267;BME280;46125;61.360;-149.532;2022-10-31T00:01:11;97682.33;;;-2.33;35.51
60267;BME280;46125;61.360;-149.532;2022-10-31T00:03:40;97685.33;;;-2.14;35.74
60267;BME280;46125;61.360;-149.532;2022-10-31T00:06:09;97690.49;;;-2.13;34.90
60267;BME280;46125;61.360;-149.532;2022-10-31T00:08:38;97693.81;;;-1.20;32.10
60267;BME280;46125;61.360;-149.532;2022-10-31T00:11:09;97695.62;;;-3.32;35.48
60267;BME280;46125;61.360;-149.532;2022-10-31T00:13:39;97696.88;;;-1.80;36.17
60267;BME280;46125;61.360;-149.532;2022-10-31T00:16:14;97696.42;;;-0.58;32.44
60267;BME280;46125;61.360;-149.532;2022-10-31T00:18:43;97699.34;;;-0.25;33.24
60267;BME280;46125;61.360;-149.532;2022-10-31T00:21:12;97701.38;;;-1.13;30.66
60267;BME280;46125;61.360;-149.532;2022-10-31T00:23:41;97704.87;;;-1.28;30.49
60267;BME280;46125;61.360;-149.532;2022-10-31T00:26:09;97702.43;;;0.12;30.15
60267;BME280;46125;61.360;-149.532;2022-10-31T00:28:38;97702.91;;;0.29;30.32
60267;BME280;46125;61.360;-149.532;2022-10-31T00:31:09;97703.48;;;0.00;32.79
60267;BME280;46125;61.360;-149.532;2022-10-31T00:33:39;97705.71;;;-1.22;35.03
60267;BME280;46125;61.360;-149.532;2022-10-31T00:36:11;97704.39;;;-1.78;35.39
60267;BME280;46125;61.360;-149.532;2022-10-31T00:38:41;97703.98;;;-1.69;35.35
60267;BME280;46125;61.360;-149.532;2022-10-31T00:41:09;97703.58;;;-2.03;36.91
60267;BME280;46125;61.360;-149.532;2022-10-31T00:43:38;97702.21;;;-1.66;34.68
60267;BME280;46125;61.360;-149.532;2022-10-31T00:46:06;97698.01;;;-1.38;34.55
60267;BME280;46125;61.360;-149.532;2022-10-31T00:48:35;97702.11;;;-1.80;34.78
60267;BME280;46125;61.360;-149.532;2022-10-31T00:51:04;97705.05;;;-1.36;34.47
60267;BME280;46125;61.360;-149.532;2022-10-31T00:53:32;97708.51;;;-1.73;35.66
60267;BME280;46125;61.360;-149.532;2022-10-31T00:56:01;97711.17;;;-2.44;35.37
60267;BME280;46125;61.360;-149.532;2022-10-31T00:58:30;97706.07;;;-1.78;36.27
60267;BME280;46125;61.360;-149.532;2022-10-31T01:00:59;97706.31;;;-1.07;36.22
60267;BME280;46125;61.360;-149.532;2022-10-31T01:03:30;97710.99;;;-1.06;33.31
60267;BME280;46125;61.360;-149.532;2022-10-31T01:06:01;97714.01;;;-0.57;35.39
60267;BME280;46125;61.360;-149.532;2022-10-31T01:08:30;97710.67;;;-1.43;35.72
60267;BME280;46125;61.360;-149.532;2022-10-31T01:11:02;97713.15;;;-1.92;35.23
60267;BME280;46125;61.360;-149.532;2022-10-31T01:13:31;97720.18;;;-0.73;32.47
60267;BME280;46125;61.360;-149.532;2022-10-31T01:16:01;97715.93;;;-0.18;30.99
60267;BME280;46125;61.360;-149.532;2022-10-31T01:18:31;97718.47;;;-1.42;31.48
60267;BME280;46125;61.360;-149.532;2022-10-31T01:21:01;97722.25;;;-0.28;29.55
60267;BME280;46125;61.360;-149.532;2022-10-31T01:23:32;97726.51;;;-2.12;32.41
60267;BME280;46125;61.360;-149.532;2022-10-31T01:26:05;97727.99;;;-1.56;33.61
60267;BME280;46125;61.360;-149.532;2022-10-31T01:28:34;97728.02;;;-1.84;32.86
60267;BME280;46125;61.360;-149.532;2022-10-31T01:31:04;97731.85;;;-0.91;31.89
60267;BME280;46125;61.360;-149.532;2022-10-31T01:33:32;97737.07;;;-1.38;33.65
60267;BME280;46125;61.360;-149.532;2022-10-31T01:36:01;97741.05;;;-0.82;32.31
60267;BME280;46125;61.360;-149.532;2022-10-31T01:38:38;97745.20;;;-1.12;34.47
60267;BME280;46125;61.360;-149.532;2022-10-31T01:41:07;97749.21;;;-1.66;32.53
60267;BME280;46125;61.360;-149.532;2022-10-31T01:43:47;97751.91;;;-1.22;33.01
60267;BME280;46125;61.360;-149.532;2022-10-31T01:46:19;97754.25;;;-0.75;33.14
60267;BME280;46125;61.360;-149.532;2022-10-31T01:48:50;97753.02;;;-0.27;33.19
60267;BME280;46125;61.360;-149.532;2022-10-31T01:51:20;97753.47;;;-0.28;35.25
60267;BME280;46125;61.360;-149.532;2022-10-31T01:53:53;97754.65;;;-0.58;34.52
60267;BME280;46125;61.360;-149.532;2022-10-31T01:56:23;97755.42;;;-0.25;32.85
60267;BME280;46125;61.360;-149.532;2022-10-31T01:58:52;97752.67;;;-0.05;31.27
60267;BME280;46125;61.360;-149.532;2022-10-31T02:01:22;97759.74;;;-1.35;35.36
60267;BME280;46125;61.360;-149.532;2022-10-31T02:03:51;97759.74;;;-0.05;34.05
60267;BME280;46125;61.360;-149.532;2022-10-31T02:06:30;97759.86;;;-0.14;33.15
60267;BME280;46125;61.360;-149.532;2022-10-31T02:09:02;97762.64;;;-0.41;34.41
60267;BME280;46125;61.360;-149.532;2022-10-31T02:11:31;97759.07;;;-0.32;31.23
60267;BME280;46125;61.360;-149.532;2022-10-31T02:14:02;97762.31;;;-0.05;32.09
60267;BME280;46125;61.360;-149.532;2022-10-31T02:16:30;97766.90;;;-0.50;31.66
60267;BME280;46125;61.360;-149.532;2022-10-31T02:18:59;97763.92;;;-0.17;33.93
60267;BME280;46125;61.360;-149.532;2022-10-31T02:21:36;97767.55;;;-0.15;33.09
60267;BME280;46125;61.360;-149.532;2022-10-31T02:24:32;97772.28;;;-0.82;33.26
60267;BME280;46125;61.360;-149.532;2022-10-31T02:27:16;97771.65;;;-0.24;33.52
60267;BME280;46125;61.360;-149.532;2022-10-31T02:30:21;97773.58;;;-0.72;32.88
60267;BME280;46125;61.360;-149.532;2022-10-31T02:32:58;97775.16;;;-0.77;34.43
60267;BME280;46125;61.360;-149.532;2022-10-31T02:35:39;97777.28;;;-1.62;36.05
60267;BME280;46125;61.360;-149.532;2022-10-31T02:38:16;97770.72;;;-1.60;35.16
60267;BME280;46125;61.360;-149.532;2022-10-31T02:40:53;97775.48;;;-1.29;34.26
60267;BME280;46125;61.360;-149.532;2022-10-31T02:43:30;97778.71;;;-1.10;33.25
60267;BME280;46125;61.360;-149.532;2022-10-31T02:46:06;97781.43;;;-0.69;31.02
60267;BME280;46125;61.360;-149.532;2022-10-31T02:48:38;97782.38;;;-0.59;32.01
60267;BME280;46125;61.360;-149.532;2022-10-31T02:51:09;97783.45;;;-0.89;33.03
60267;BME280;46125;61.360;-149.532;2022-10-31T02:53:38;97788.53;;;-1.19;35.76
60267;BME280;46125;61.360;-149.532;2022-10-31T02:56:11;97789.84;;;-1.00;34.67
60267;BME280;46125;61.360;-149.532;2022-10-31T02:58:42;97793.60;;;-1.01;34.69
60267;BME280;46125;61.360;-149.532;2022-10-31T03:01:31;97795.74;;;-0.79;34.23
60267;BME280;46125;61.360;-149.532;2022-10-31T03:04:17;97794.15;;;-0.70;34.84
60267;BME280;46125;61.360;-149.532;2022-10-31T03:06:54;97796.11;;;-1.00;35.33
60267;BME280;46125;61.360;-149.532;2022-10-31T03:09:29;97796.70;;;-1.03;35.52
60267;BME280;46125;61.360;-149.532;2022-10-31T03:12:07;97801.56;;;-0.97;35.08
60267;BME280;46125;61.360;-149.532;2022-10-31T03:14:41;97802.55;;;-0.87;34.93
60267;BME280;46125;61.360;-149.532;2022-10-31T03:17:15;97798.65;;;-1.26;34.79
60267;BME280;46125;61.360;-149.532;2022-10-31T03:19:47;97799.87;;;-1.61;35.43
60267;BME280;46125;61.360;-149.532;2022-10-31T03:22:19;97806.97;;;-2.36;36.52
60267;BME280;46125;61.360;-149.532;2022-10-31T03:24:51;97812.02;;;-2.39;37.00
60267;BME280;46125;61.360;-149.532;2022-10-31T03:27:24;97817.94;;;-3.22;38.00
60267;BME280;46125;61.360;-149.532;2022-10-31T03:29:56;97823.29;;;-3.76;38.12
60267;BME280;46125;61.360;-149.532;2022-10-31T03:32:29;97828.14;;;-4.43;38.86
60267;BME280;46125;61.360;-149.532;2022-10-31T03:35:02;97830.49;;;-4.05;37.52
60267;BME280;46125;61.360;-149.532;2022-10-31T03:37:34;97833.90;;;-3.47;37.88
60267;BME280;46125;61.360;-149.532;2022-10-31T03:40:06;97833.44;;;-3.52;37.82
60267;BME280;46125;61.360;-149.532;2022-10-31T03:42:40;97834.50;;;-3.33;37.83
60267;BME280;46125;61.360;-149.532;2022-10-31T03:45:15;97843.44;;;-2.86;36.52
60267;BME280;46125;61.360;-149.532;2022-10-31T03:47:46;97843.97;;;-2.40;35.96
60267;BME280;46125;61.360;-149.532;2022-10-31T03:50:16;97846.89;;;-2.97;37.87
60267;BME280;46125;61.360;-149.532;2022-10-31T03:52:49;97848.63;;;-3.33;37.03
60267;BME280;46125;61.360;-149.532;2022-10-31T03:55:26;97850.55;;;-3.20;37.81
60267;BME280;46125;61.360;-149.532;2022-10-31T03:57:59;97852.38;;;-3.15;36.72
60267;BME280;46125;61.360;-149.532;2022-10-31T04:00:31;97860.56;;;-2.99;37.59
60267;BME280;46125;61.360;-149.532;2022-10-31T04:03:07;97860.31;;;-2.96;36.82
60267;BME280;46125;61.360;-149.532;2022-10-31T04:05:38;97859.46;;;-3.04;36.04
60267;BME280;46125;61.360;-149.532;2022-10-31T04:08:09;97863.75;;;-3.11;36.60
60267;BME280;46125;61.360;-149.532;2022-10-31T04:10:41;97870.29;;;-2.81;36.66
60267;BME280;46125;61.360;-149.532;2022-10-31T04:13:20;97867.93;;;-2.91;36.48
60267;BME280;46125;61.360;-149.532;2022-10-31T04:15:53;97873.67;;;-2.94;36.64
60267;BME280;46125;61.360;-149.532;2022-10-31T04:18:24;97877.64;;;-3.09;37.75
60267;BME280;46125;61.360;-149.532;2022-10-31T04:21:01;97882.84;;;-2.96;37.21
60267;BME280;46125;61.360;-149.532;2022-10-31T04:23:31;97886.74;;;-2.54;36.33
60267;BME280;46125;61.360;-149.532;2022-10-31T04:26:01;97891.06;;;-2.04;36.04
60267;BME280;46125;61.360;-149.532;2022-10-31T04:28:30;97896.79;;;-2.09;35.52
60267;BME280;46125;61.360;-149.532;2022-10-31T04:30:58;97901.48;;;-2.38;35.41
60267;BME280;46125;61.360;-149.532;2022-10-31T04:33:32;97902.23;;;-2.27;34.65
60267;BME280;46125;61.360;-149.532;2022-10-31T04:36:00;97902.22;;;-2.20;34.69
60267;BME280;46125;61.360;-149.532;2022-10-31T04:38:28;97901.40;;;-1.59;34.12
60267;BME280;46125;61.360;-149.532;2022-10-31T04:41:02;97904.48;;;-1.47;34.87
60267;BME280;46125;61.360;-149.532;2022-10-31T04:43:31;97914.16;;;-1.90;34.67
60267;BME280;46125;61.360;-149.532;2022-10-31T04:46:00;97921.05;;;-2.68;35.25
60267;BME280;46125;61.360;-149.532;2022-10-31T04:48:28;97924.86;;;-3.51;36.74
60267;BME280;46125;61.360;-149.532;2022-10-31T04:51:05;97930.34;;;-3.63;38.27
60267;BME280;46125;61.360;-149.532;2022-10-31T04:53:33;97935.62;;;-3.67;38.12
60267;BME280;46125;61.360;-149.532;2022-10-31T04:56:02;97938.47;;;-3.62;38.35
60267;BME280;46125;61.360;-149.532;2022-10-31T04:58:31;97939.65;;;-3.93;39.60
60267;BME280;46125;61.360;-149.532;2022-10-31T05:00:59;97942.55;;;-2.83;40.05
60267;BME280;46125;61.360;-149.532;2022-10-31T05:03:28;97950.97;;;-2.87;39.12
60267;BME280;46125;61.360;-149.532;2022-10-31T05:05:56;97955.17;;;-2.66;38.47
60267;BME280;46125;61.360;-149.532;2022-10-31T05:08:25;97956.83;;;-3.00;37.64
60267;BME280;46125;61.360;-149.532;2022-10-31T05:10:54;97959.81;;;-2.47;37.24
60267;BME280;46125;61.360;-149.532;2022-10-31T05:13:23;97964.75;;;-3.32;39.06
60267;BME280;46125;61.360;-149.532;2022-10-31T05:15:51;97973.50;;;-2.61;37.62
60267;BME280;46125;61.360;-149.532;2022-10-31T05:18:20;97981.56;;;-1.93;36.43
60267;BME280;46125;61.360;-149.532;2022-10-31T05:20:48;97980.91;;;-2.85;38.12
60267;BME280;46125;61.360;-149.532;2022-10-31T05:23:17;97980.50;;;-2.60;38.43
60267;BME280;46125;61.360;-149.532;2022-10-31T05:25:45;97985.29;;;-2.23;36.05
60267;BME280;46125;61.360;-149.532;2022-10-31T05:28:16;97980.86;;;-1.68;34.01
60267;BME280;46125;61.360;-149.532;2022-10-31T05:30:44;97987.18;;;-1.46;34.50
60267;BME280;46125;61.360;-149.532;2022-10-31T05:33:18;97985.52;;;-1.73;34.72
60267;BME280;46125;61.360;-149.532;2022-10-31T05:35:47;97989.39;;;-2.57;37.58
60267;BME280;46125;61.360;-149.532;2022-10-31T05:38:15;97995.18;;;-2.59;37.78
60267;BME280;46125;61.360;-149.532;2022-10-31T05:40:44;97993.68;;;-3.11;37.51
60267;BME280;46125;61.360;-149.532;2022-10-31T05:43:13;98005.86;;;-3.38;39.98
60267;BME280;46125;61.360;-149.532;2022-10-31T05:45:41;98006.22;;;-2.08;37.45
60267;BME280;46125;61.360;-149.532;2022-10-31T05:48:10;98006.46;;;-1.63;36.71
60267;BME280;46125;61.360;-149.532;2022-10-31T05:50:39;98008.38;;;-1.41;36.06
60267;BME280;46125;61.360;-149.532;2022-10-31T05:53:08;98014.11;;;-1.29;35.48
60267;BME280;46125;61.360;-149.532;2022-10-31T05:55:37;98015.41;;;-2.90;37.28
60267;BME280;46125;61.360;-149.532;2022-10-31T05:58:06;98015.04;;;-1.95;37.04
60267;BME280;46125;61.360;-149.532;2022-10-31T06:00:34;98018.47;;;-1.61;36.08
60267;BME280;46125;61.360;-149.532;2022-10-31T06:03:05;98020.41;;;-1.69;35.39
60267;BME280;46125;61.360;-149.532;2022-10-31T06:05:34;98015.54;;;-1.08;35.35
60267;BME280;46125;61.360;-149.532;2022-10-31T06:08:03;98019.57;;;-0.92;35.08
60267;BME280;46125;61.360;-149.532;2022-10-31T06:10:32;98029.89;;;-2.26;35.52
60267;BME280;46125;61.360;-149.532;2022-10-31T06:13:00;98032.04;;;-3.33;36.99
60267;BME280;46125;61.360;-149.532;2022-10-31T06:15:29;98033.61;;;-2.03;35.74
60267;BME280;46125;61.360;-149.532;2022-10-31T06:18:00;98030.83;;;-1.94;35.68
60267;BME280;46125;61.360;-149.532;2022-10-31T06:20:30;98033.73;;;-2.11;36.51
60267;BME280;46125;61.360;-149.532;2022-10-31T06:22:59;98045.50;;;-2.30;36.82
60267;BME280;46125;61.360;-149.532;2022-10-31T06:25:28;98042.96;;;-3.29;37.64
60267;BME280;46125;61.360;-149.532;2022-10-31T06:27:56;98048.36;;;-2.22;36.24
60267;BME280;46125;61.360;-149.532;2022-10-31T06:30:26;98048.20;;;-1.67;35.81
60267;BME280;46125;61.360;-149.532;2022-10-31T06:32:54;98052.58;;;-2.49;37.71
60267;BME280;46125;61.360;-149.532;2022-10-31T06:35:23;98057.78;;;-1.65;34.81
60267;BME280;46125;61.360;-149.532;2022-10-31T06:37:52;98058.76;;;-3.44;37.83
60267;BME280;46125;61.360;-149.532;2022-10-31T06:40:21;98062.16;;;-2.05;37.92
60267;BME280;46125;61.360;-149.532;2022-10-31T06:42:57;98069.24;;;-2.23;38.18
60267;BME280;46125;61.360;-149.532;2022-10-31T06:45:26;98071.01;;;-3.64;39.55
60267;BME280;46125;61.360;-149.532;2022-10-31T06:47:56;98074.52;;;-2.66;39.23
60267;BME280;46125;61.360;-149.532;2022-10-31T06:50:25;98073.55;;;-2.39;37.56
60267;BME280;46125;61.360;-149.532;2022-10-31T06:52:54;98074.40;;;-1.72;36.65
60267;BME280;46125;61.360;-149.532;2022-10-31T06:55:24;98075.81;;;-1.32;36.04
60267;BME280;46125;61.360;-149.532;2022-10-31T06:57:54;98074.63;;;-2.73;37.46
60267;BME280;46125;61.360;-149.532;2022-10-31T07:00:23;98078.42;;;-2.16;36.31
60267;BME280;46125;61.360;-149.532;2022-10-31T07:02:57;98080.72;;;-1.98;35.37
60267;BME280;46125;61.360;-149.532;2022-10-31T07:05:26;98086.28;;;-1.22;35.10
60267;BME280;46125;61.360;-149.532;2022-10-31T07:07:56;98093.95;;;-2.40;36.62
60267;BME280;46125;61.360;-149.532;2022-10-31T07:10:26;98100.25;;;-1.62;37.27
60267;BME280;46125;61.360;-149.532;2022-10-31T07:12:56;98105.53;;;-1.48;37.09
60267;BME280;46125;61.360;-149.532;2022-10-31T07:15:26;98106.73;;;-2.39;37.54
60267;BME280;46125;61.360;-149.532;2022-10-31T07:18:00;98110.95;;;-1.48;37.26
60267;BME280;46125;61.360;-149.532;2022-10-31T07:20:29;98115.91;;;-3.27;39.51
60267;BME280;46125;61.360;-149.532;2022-10-31T07:22:58;98121.13;;;-2.08;38.34
60267;BME280;46125;61.360;-149.532;2022-10-31T07:25:27;98130.40;;;-2.76;38.11
60267;BME280;46125;61.360;-149.532;2022-10-31T07:27:56;98133.47;;;-2.09;38.55
60267;BME280;46125;61.360;-149.532;2022-10-31T07:30:25;98136.73;;;-2.75;37.95
60267;BME280;46125;61.360;-149.532;2022-10-31T07:32:53;98138.48;;;-1.62;37.19
60267;BME280;46125;61.360;-149.532;2022-10-31T07:35:24;98145.30;;;-2.37;38.37
60267;BME280;46125;61.360;-149.532;2022-10-31T07:37:53;98146.49;;;-2.80;36.34
60267;BME280;46125;61.360;-149.532;2022-10-31T07:40:22;98150.42;;;-1.85;35.85
60267;BME280;46125;61.360;-149.532;2022-10-31T07:42:52;98152.94;;;-1.33;36.02
60267;BME280;46125;61.360;-149.532;2022-10-31T07:45:21;98156.15;;;-1.40;37.64
60267;BME280;46125;61.360;-149.532;2022-10-31T07:47:50;98158.46;;;-1.90;38.81
60267;BME280;46125;61.360;-149.532;2022-10-31T07:50:22;98163.92;;;-2.28;38.58
60267;BME280;46125;61.360;-149.532;2022-10-31T07:52:59;98167.19;;;-2.61;38.69
60267;BME280;46125;61.360;-149.532;2022-10-31T07:55:28;98171.04;;;-1.80;38.02
60267;BME280;46125;61.360;-149.532;2022-10-31T07:57:58;98172.90;;;-1.37;36.63
60267;BME280;46125;61.360;-149.532;2022-10-31T08:00:27;98177.01;;;-2.38;35.25
60267;BME280;46125;61.360;-149.532;2022-10-31T08:03:00;98180.47;;;-2.15;35.59
60267;BME280;46125;61.360;-149.532;2022-10-31T08:05:30;98183.05;;;-1.54;35.35
60267;BME280;46125;61.360;-149.532;2022-10-31T08:07:58;98185.47;;;-1.19;35.93
60267;BME280;46125;61.360;-149.532;2022-10-31T08:10:27;98186.77;;;-1.95;35.39
60267;BME280;46125;61.360;-149.532;2022-10-31T08:12:58;98195.87;;;-0.92;35.95
60267;BME280;46125;61.360;-149.532;2022-10-31T08:15:27;98202.36;;;-1.17;37.99
60267;BME280;46125;61.360;-149.532;2022-10-31T08:17:56;98210.48;;;-3.16;40.62
60267;BME280;46125;61.360;-149.532;2022-10-31T08:20:24;98215.26;;;-2.73;40.38
60267;BME280;46125;61.360;-149.532;2022-10-31T08:22:55;98219.33;;;-3.09;40.48
60267;BME280;46125;61.360;-149.532;2022-10-31T08:25:25;98218.67;;;-3.40;39.00
60267;BME280;46125;61.360;-149.532;2022-10-31T08:27:55;98226.09;;;-4.06;42.39
60267;BME280;46125;61.360;-149.532;2022-10-31T08:30:26;98225.03;;;-2.60;39.48
60267;BME280;46125;61.360;-149.532;2022-10-31T08:33:03;98224.88;;;-2.23;39.18
60267;BME280;46125;61.360;-149.532;2022-10-31T08:35:31;98228.40;;;-3.60;40.12
60267;BME280;46125;61.360;-149.532;2022-10-31T08:38:00;98240.33;;;-5.30;39.90
60267;BME280;46125;61.360;-149.532;2022-10-31T08:40:30;98235.79;;;-3.98;41.06
60267;BME280;46125;61.360;-149.532;2022-10-31T08:43:00;98237.99;;;-3.94;41.08
60267;BME280;46125;61.360;-149.532;2022-10-31T08:45:30;98232.19;;;-3.20;39.75
60267;BME280;46125;61.360;-149.532;2022-10-31T08:47:59;98236.30;;;-2.13;39.54
60267;BME280;46125;61.360;-149.532;2022-10-31T08:50:30;98241.19;;;-3.64;40.71
60267;BME280;46125;61.360;-149.532;2022-10-31T08:53:02;98242.41;;;-2.71;37.67
60267;BME280;46125;61.360;-149.532;2022-10-31T08:55:32;98242.06;;;-2.80;38.66
60267;BME280;46125;61.360;-149.532;2022-10-31T08:58:01;98243.62;;;-3.58;40.93
60267;BME280;46125;61.360;-149.532;2022-10-31T09:00:30;98250.65;;;-5.45;41.24
60267;BME280;46125;61.360;-149.532;2022-10-31T09:03:01;98252.92;;;-6.05;39.83
60267;BME280;46125;61.360;-149.532;2022-10-31T09:05:30;98246.66;;;-3.39;37.33
60267;BME280;46125;61.360;-149.532;2022-10-31T09:08:00;98245.51;;;-2.59;38.79
60267;BME280;46125;61.360;-149.532;2022-10-31T09:10:29;98251.08;;;-2.66;38.24
60267;BME280;46125;61.360;-149.532;2022-10-31T09:12:59;98253.64;;;-3.13;38.92
60267;BME280;46125;61.360;-149.532;2022-10-31T09:15:30;98255.35;;;-3.02;38.89
60267;BME280;46125;61.360;-149.532;2022-10-31T09:17:58;98261.12;;;-3.05;38.56
60267;BME280;46125;61.360;-149.532;2022-10-31T09:20:28;98264.44;;;-3.33;38.69
60267;BME280;46125;61.360;-149.532;2022-10-31T09:22:57;98271.45;;;-4.12;40.71
60267;BME280;46125;61.360;-149.532;2022-10-31T09:25:27;98273.20;;;-3.99;39.98
60267;BME280;46125;61.360;-149.532;2022-10-31T09:27:57;98280.53;;;-4.71;42.45
60267;BME280;46125;61.360;-149.532;2022-10-31T09:30:31;98283.35;;;-4.38;40.07
60267;BME280;46125;61.360;-149.532;2022-10-31T09:33:01;98286.54;;;-5.08;43.06
60267;BME280;46125;61.360;-149.532;2022-10-31T09:35:30;98287.99;;;-5.22;42.72
60267;BME280;46125;61.360;-149.532;2022-10-31T09:38:01;98293.60;;;-4.12;41.68
60267;BME280;46125;61.360;-149.532;2022-10-31T09:40:34;98296.74;;;-3.91;42.43
60267;BME280;46125;61.360;-149.532;2022-10-31T09:43:12;98302.18;;;-4.03;41.82
60267;BME280;46125;61.360;-149.532;2022-10-31T09:45:52;98301.05;;;-3.17;37.46
60267;BME280;46125;61.360;-149.532;2022-10-31T09:48:33;98309.24;;;-4.24;39.27
60267;BME280;46125;61.360;-149.532;2022-10-31T09:51:07;98311.63;;;-3.08;40.05
60267;BME280;46125;61.360;-149.532;2022-10-31T09:53:40;98310.99;;;-2.75;40.63
60267;BME280;46125;61.360;-149.532;2022-10-31T09:56:13;98313.85;;;-3.09;39.50
60267;BME280;46125;61.360;-149.532;2022-10-31T09:58:45;98312.24;;;-3.06;39.91
60267;BME280;46125;61.360;-149.532;2022-10-31T10:01:25;98312.65;;;-2.90;40.84
60267;BME280;46125;61.360;-149.532;2022-10-31T10:04:01;98320.57;;;-3.19;40.61
60267;BME280;46125;61.360;-149.532;2022-10-31T10:06:34;98327.03;;;-4.07;39.81
60267;BME280;46125;61.360;-149.532;2022-10-31T10:09:03;98330.95;;;-3.57;39.48
60267;BME280;46125;61.360;-149.532;2022-10-31T10:11:42;98335.14;;;-3.81;41.81
60267;BME280;46125;61.360;-149.532;2022-10-31T10:14:25;98333.81;;;-2.94;39.77
60267;BME280;46125;61.360;-149.532;2022-10-31T10:17:07;98335.19;;;-2.64;37.65
60267;BME280;46125;61.360;-149.532;2022-10-31T10:19:53;98336.42;;;-2.15;38.21
60267;BME280;46125;61.360;-149.532;2022-10-31T10:22:35;98339.58;;;-2.75;38.54
60267;BME280;46125;61.360;-149.532;2022-10-31T10:25:16;98344.44;;;-3.01;38.47
60267;BME280;46125;61.360;-149.532;2022-10-31T10:27:55;98349.91;;;-3.06;39.25
60267;BME280;46125;61.360;-149.532;2022-10-31T10:30:32;98349.01;;;-2.66;37.45
60267;BME280;46125;61.360;-149.532;2022-10-31T10:33:08;98352.74;;;-2.90;39.59
60267;BME280;46125;61.360;-149.532;2022-10-31T10:35:43;98356.05;;;-2.71;37.94
60267;BME280;46125;61.360;-149.532;2022-10-31T10:38:22;98357.80;;;-2.55;38.43
60267;BME280;46125;61.360;-149.532;2022-10-31T10:40:53;98365.34;;;-3.97;38.93
60267;BME280;46125;61.360;-149.532;2022-10-31T10:43:26;98371.95;;;-3.94;40.57
60267;BME280;46125;61.360;-149.532;2022-10-31T10:46:06;98373.37;;;-4.15;38.78
60267;BME280;46125;61.360;-149.532;2022-10-31T10:48:44;98378.34;;;-3.47;37.88
60267;BME280;46125;61.360;-149.532;2022-10-31T10:51:20;98382.98;;;-4.36;40.93
60267;BME280;46125;61.360;-149.532;2022-10-31T10:54:01;98382.20;;;-4.23;36.93
60267;BME280;46125;61.360;-149.532;2022-10-31T10:56:46;98384.89;;;-3.48;39.16
60267;BME280;46125;61.360;-149.532;2022-10-31T10:59:19;98387.65;;;-3.60;39.71
60267;BME280;46125;61.360;-149.532;2022-10-31T11:01:50;98391.82;;;-3.52;41.11
60267;BME280;46125;61.360;-149.532;2022-10-31T11:04:31;98398.81;;;-3.31;40.84
60267;BME280;46125;61.360;-149.532;2022-10-31T11:07:02;98398.26;;;-3.02;37.26
60267;BME280;46125;61.360;-149.532;2022-10-31T11:09:31;98397.19;;;-4.35;39.78
60267;BME280;46125;61.360;-149.532;2022-10-31T11:12:05;98400.57;;;-4.66;40.62
60267;BME280;46125;61.360;-149.532;2022-10-31T11:14:42;98403.42;;;-2.61;36.83
60267;BME280;46125;61.360;-149.532;2022-10-31T11:17:20;98405.44;;;-2.06;35.97
60267;BME280;46125;61.360;-149.532;2022-10-31T11:20:04;98407.10;;;-2.83;34.74
60267;BME280;46125;61.360;-149.532;2022-10-31T11:22:33;98410.69;;;-2.19;36.98
60267;BME280;46125;61.360;-149.532;2022-10-31T11:25:20;98416.71;;;-2.57;36.77
60267;BME280;46125;61.360;-149.532;2022-10-31T11:27:59;98423.18;;;-2.33;36.84
60267;BME280;46125;61.360;-149.532;2022-10-31T11:30:28;98423.22;;;-2.24;37.76
60267;BME280;46125;61.360;-149.532;2022-10-31T11:32:57;98426.88;;;-1.39;35.85
60267;BME280;46125;61.360;-149.532;2022-10-31T11:35:26;98433.05;;;-1.12;34.36
60267;BME280;46125;61.360;-149.532;2022-10-31T11:37:58;98432.98;;;-1.12;35.06
60267;BME280;46125;61.360;-149.532;2022-10-31T11:40:27;98434.70;;;-1.25;33.28
60267;BME280;46125;61.360;-149.532;2022-10-31T11:42:58;98435.60;;;-1.44;35.02
60267;BME280;46125;61.360;-149.532;2022-10-31T11:45:31;98439.04;;;-1.26;36.27
60267;BME280;46125;61.360;-149.532;2022-10-31T11:48:02;98438.97;;;-1.77;35.89
60267;BME280;46125;61.360;-149.532;2022-10-31T11:50:34;98441.04;;;-1.50;35.94
60267;BME280;46125;61.360;-149.532;2022-10-31T11:53:03;98444.42;;;-1.14;36.35
60267;BME280;46125;61.360;-149.532;2022-10-31T11:55:40;98444.13;;;-1.95;36.29
60267;BME280;46125;61.360;-149.532;2022-10-31T11:58:22;98446.81;;;-2.01;35.18
60267;BME280;46125;61.360;-149.532;2022-10-31T12:00:52;98449.44;;;-2.13;34.60
60267;BME280;46125;61.360;-149.532;2022-10-31T12:03:35;98448.70;;;-2.02;34.95
60267;BME280;46125;61.360;-149.532;2022-10-31T12:06:09;98458.70;;;-2.18;35.98
60267;BME280;46125;61.360;-149.532;2022-10-31T12:08:41;98457.21;;;-1.54;37.63
60267;BME280;46125;61.360;-149.532;2022-10-31T12:11:19;98460.29;;;-2.36;36.31
60267;BME280;46125;61.360;-149.532;2022-10-31T12:14:02;98466.57;;;-3.01;36.57
60267;BME280;46125;61.360;-149.532;2022-10-31T12:16:39;98468.25;;;-2.61;37.12
60267;BME280;46125;61.360;-149.532;2022-10-31T12:19:16;98473.25;;;-1.94;35.67
60267;BME280;46125;61.360;-149.532;2022-10-31T12:22:04;98473.88;;;-1.54;36.33
60267;BME280;46125;61.360;-149.532;2022-10-31T12:24:45;98481.60;;;-0.90;37.15
60267;BME280;46125;61.360;-149.532;2022-10-31T12:27:25;98483.97;;;-0.76;37.03
60267;BME280;46125;61.360;-149.532;2022-10-31T12:30:09;98489.41;;;-0.71;35.33
60267;BME280;46125;61.360;-149.532;2022-10-31T12:32:53;98494.92;;;-1.02;34.79
60267;BME280;46125;61.360;-149.532;2022-10-31T12:35:34;98496.34;;;-0.63;36.19
60267;BME280;46125;61.360;-149.532;2022-10-31T12:38:18;98501.58;;;-0.53;36.47
60267;BME280;46125;61.360;-149.532;2022-10-31T12:41:03;98505.85;;;-0.33;35.42
60267;BME280;46125;61.360;-149.532;2022-10-31T12:43:45;98506.41;;;-0.27;35.40
60267;BME280;46125;61.360;-149.532;2022-10-31T12:46:24;98510.85;;;-0.80;37.14
60267;BME280;46125;61.360;-149.532;2022-10-31T12:49:17;98516.10;;;-1.41;37.12
60267;BME280;46125;61.360;-149.532;2022-10-31T12:52:00;98518.64;;;-0.93;36.00
60267;BME280;46125;61.360;-149.532;2022-10-31T12:54:51;98523.43;;;-0.68;34.43
60267;BME280;46125;61.360;-149.532;2022-10-31T12:57:29;98523.80;;;-1.51;35.30